Time;durP1;ratioP1;P1;durP2;ratioP2;P2;SDS_P1;SDS_P2;PMS_P1;PMS_P2;Temp;Humidity;BMP_temperature;BMP_pressure;BME280_temperature;BME280_humidity;BME280_pressure;Samples;Min_cycle;Max_cycle;Signal;HPM_P1;HPM_P2
2023/10/13 00:02:01;;;;;;;9.05;5.90;;;;;;;16.32;100.00;101110.50;5053847;28;20056;-81
2023/10/13 00:04:32;;;;;;;10.57;5.97;;;;;;;16.33;100.00;101116.63;5051638;28;20029;-81
2023/10/13 00:06:57;;;;;;;8.57;5.43;;;;;;;16.33;100.00;101108.75;5053770;28;20029;-81
2023/10/13 00:09:31;;;;;;;9.10;5.78;;;;;;;16.32;100.00;101102.63;5056003;28;20028;-81
2023/10/13 00:11:57;;;;;;;8.70;5.45;;;;;;;16.32;100.00;101097.38;5047930;28;20060;-81
2023/10/13 00:14:30;;;;;;;9.20;5.53;;;;;;;16.31;100.00;101095.69;5055102;28;20067;-81
2023/10/13 00:17:05;;;;;;;8.25;5.38;;;;;;;16.30;100.00;101087.88;5049117;28;20020;-81
2023/10/13 00:19:46;;;;;;;9.52;5.55;;;;;;;16.28;100.00;101084.47;5046861;28;20082;-81
2023/10/13 00:22:15;;;;;;;10.70;5.60;;;;;;;16.27;100.00;101086.25;5048980;28;20025;-81
2023/10/13 00:24:43;;;;;;;7.68;5.00;;;;;;;16.26;100.00;101086.31;5050089;28;20040;-81
2023/10/13 00:27:33;;;;;;;8.88;5.15;;;;;;;16.28;100.00;101084.47;5050736;28;20028;-81
2023/10/13 00:30:33;;;;;;;8.18;5.03;;;;;;;16.28;100.00;101079.22;5047532;28;20035;-81
2023/10/13 00:32:59;;;;;;;9.15;5.32;;;;;;;16.27;100.00;101072.28;5048714;28;20561;-81
2023/10/13 00:35:35;;;;;;;9.32;4.75;;;;;;;16.27;100.00;101077.53;5049326;28;20021;-81
2023/10/13 00:38:12;;;;;;;8.25;5.45;;;;;;;16.27;100.00;101067.03;5048351;28;20409;-81
2023/10/13 00:44:03;;;;;;;10.18;5.20;;;;;;;16.24;100.00;101060.97;5052423;28;20047;-82
2023/10/13 00:46:05;;;;;;;7.68;4.57;;;;;;;16.24;100.00;101073.28;5048458;28;20041;-81
2023/10/13 00:48:42;;;;;;;9.07;4.80;;;;;;;16.23;100.00;101066.31;5051516;28;20044;-81
2023/10/13 00:51:18;;;;;;;9.60;4.80;;;;;;;16.22;100.00;101062.84;5049873;28;20033;-81
2023/10/13 00:53:46;;;;;;;8.02;4.95;;;;;;;16.21;100.00;101053.28;5051461;28;20025;-81
2023/10/13 00:56:27;;;;;;;8.68;4.82;;;;;;;16.21;100.00;101053.28;5052651;28;20017;-81
2023/10/13 00:58:53;;;;;;;9.45;4.72;;;;;;;16.21;100.00;101058.53;5052779;28;20108;-81
2023/10/13 01:01:28;;;;;;;7.28;4.80;;;;;;;16.20;100.00;101051.56;5048597;28;20075;-81
2023/10/13 01:03:59;;;;;;;7.95;4.82;;;;;;;16.20;100.00;101045.44;5050088;28;20025;-81
2023/10/13 01:06:25;;;;;;;8.48;4.75;;;;;;;16.21;100.00;101047.16;5052716;28;20035;-82
2023/10/13 01:09:18;;;;;;;7.95;4.35;;;;;;;16.19;100.00;101035.88;5065629;28;20016;-81
2023/10/13 01:11:48;;;;;;;9.02;4.70;;;;;;;16.18;100.00;101037.66;5051300;28;20028;-82
2023/10/13 01:14:18;;;;;;;8.25;4.85;;;;;;;16.18;100.00;101037.66;5051145;28;20025;-81
2023/10/13 01:16:44;;;;;;;9.80;4.90;;;;;;;16.17;100.00;101029.84;5051200;28;20371;-81
2023/10/13 01:19:12;;;;;;;7.47;4.68;;;;;;;16.17;100.00;101025.47;5052336;28;20021;-81
2023/10/13 01:21:40;;;;;;;6.53;3.90;;;;;;;16.17;100.00;101030.72;5050899;28;20036;-81
2023/10/13 01:24:07;;;;;;;7.00;4.20;;;;;;;16.15;100.00;101022.06;5051003;28;20025;-82
2023/10/13 01:26:38;;;;;;;8.13;4.50;;;;;;;16.14;100.00;101015.09;5063963;28;20503;-81
2023/10/13 01:29:11;;;;;;;8.05;4.40;;;;;;;16.15;100.00;101021.19;5052487;28;20025;-82
2023/10/13 01:31:37;;;;;;;7.97;4.05;;;;;;;16.14;100.00;101014.25;5061828;28;20532;-82
2023/10/13 01:34:02;;;;;;;7.80;4.30;;;;;;;16.13;100.00;101012.56;5052079;28;20028;-81
2023/10/13 01:36:35;;;;;;;8.02;4.15;;;;;;;16.12;100.00;101011.69;5051338;28;20021;-81
2023/10/13 01:39:01;;;;;;;7.45;3.90;;;;;;;16.13;100.00;101002.06;5051955;28;20028;-82
2023/10/13 01:41:26;;;;;;;5.53;4.00;;;;;;;16.12;100.00;100995.09;5049210;28;20068;-82
2023/10/13 01:43:51;;;;;;;6.07;3.55;;;;;;;16.11;100.00;100994.25;5051152;28;20462;-81
2023/10/13 01:46:19;;;;;;;6.65;3.63;;;;;;;16.12;100.00;100985.44;5049160;28;20016;-82
2023/10/13 01:48:46;;;;;;;7.50;3.58;;;;;;;16.10;100.00;100976.78;5050403;28;20242;-82
2023/10/13 01:51:11;;;;;;;6.88;3.47;;;;;;;16.11;100.00;100977.66;5047909;28;20033;-82
2023/10/13 01:53:37;;;;;;;8.38;3.90;;;;;;;16.11;100.00;100982.91;5047666;28;20032;-82
2023/10/13 01:56:10;;;;;;;6.22;3.67;;;;;;;16.09;100.00;100975.09;5051522;28;20021;-81
2023/10/13 01:58:42;;;;;;;5.75;3.53;;;;;;;16.08;100.00;100968.13;5051901;28;20086;-82
2023/10/13 02:01:08;;;;;;;5.88;3.53;;;;;;;16.08;100.00;100973.38;5047882;28;20041;-82
2023/10/13 02:03:36;;;;;;;8.48;3.63;;;;;;;16.07;100.00;100967.28;5050366;28;20076;-82
2023/10/13 02:06:04;;;;;;;5.90;3.30;;;;;;;16.07;100.00;100963.81;5050421;28;20043;-81
2023/10/13 02:08:30;;;;;;;5.50;3.35;;;;;;;16.08;100.00;100947.13;5049713;28;20021;-81
2023/10/13 02:10:56;;;;;;;5.25;3.58;;;;;;;16.07;100.00;100941.06;5048642;28;20040;-82
2023/10/13 02:13:22;;;;;;;7.45;3.78;;;;;;;16.08;100.00;100944.50;5049115;28;20115;-82
2023/10/13 02:15:51;;;;;;;6.72;3.35;;;;;;;16.07;100.00;100935.81;5051585;28;20021;-82
2023/10/13 02:18:26;;;;;;;6.00;3.85;;;;;;;16.06;100.00;100930.59;5049520;28;20086;-82
2023/10/13 02:20:56;;;;;;;6.38;3.80;;;;;;;16.06;100.00;100935.84;5050716;28;20021;-82
2023/10/13 02:23:29;;;;;;;7.45;3.90;;;;;;;16.06;100.00;100939.34;5054673;28;20029;-82
2023/10/13 02:26:00;;;;;;;8.00;3.83;;;;;;;16.05;100.00;100939.44;5050667;28;20021;-82
2023/10/13 02:28:33;;;;;;;6.55;3.97;;;;;;;16.06;100.00;100943.72;5054436;28;20029;-81
2023/10/13 02:31:03;;;;;;;7.43;4.18;;;;;;;16.06;100.00;100939.34;5053117;28;20045;-85
2023/10/13 02:33:32;;;;;;;8.18;4.50;;;;;;;16.05;100.00;100936.81;5056333;28;20021;-82
2023/10/13 02:36:06;;;;;;;8.95;4.95;;;;;;;16.05;100.00;100936.81;5055349;28;20035;-81
2023/10/13 02:38:45;;;;;;;11.68;5.40;;;;;;;16.05;100.00;100939.44;5056745;28;20086;-82
2023/10/13 02:41:25;;;;;;;9.95;5.82;;;;;;;16.05;100.00;100926.31;5054834;28;20025;-82
2023/10/13 02:43:51;;;;;;;8.00;5.28;;;;;;;16.05;100.00;100915.81;5053465;28;20017;-82
2023/10/13 02:46:16;;;;;;;9.45;5.60;;;;;;;16.06;100.00;100912.22;5053834;28;20390;-81
2023/10/13 02:48:45;;;;;;;9.38;6.25;;;;;;;16.06;100.00;100904.38;5053836;28;20547;-81
2023/10/13 02:51:17;;;;;;;9.35;6.20;;;;;;;16.06;100.00;100902.59;5054460;28;20126;-81
2023/10/13 02:53:48;;;;;;;10.30;6.38;;;;;;;16.07;100.00;100892.94;5055074;28;20365;-82
2023/10/13 02:56:13;;;;;;;11.10;6.60;;;;;;;16.06;100.00;100892.09;5054932;28;20020;-81
2023/10/13 02:58:43;;;;;;;11.75;7.13;;;;;;;16.06;100.00;100888.63;5053931;28;20021;-81
2023/10/13 03:01:16;;;;;;;12.90;6.97;;;;;;;16.06;100.00;100875.50;5036790;28;20502;-81
2023/10/13 03:03:47;;;;;;;11.63;6.38;;;;;;;16.06;100.00;100867.63;5054215;28;20056;-81
2023/10/13 03:06:13;;;;;;;10.68;7.00;;;;;;;16.06;100.00;100865.00;5054860;28;20476;-81
2023/10/13 03:08:39;;;;;;;11.73;6.80;;;;;;;16.07;100.00;100856.22;5051885;28;20416;-82
2023/10/13 03:11:05;;;;;;;11.60;6.97;;;;;;;16.06;100.00;100846.63;5052603;28;20095;-81
2023/10/13 03:13:33;;;;;;;11.32;7.03;;;;;;;16.07;100.00;100850.97;5053117;28;20032;-81
2023/10/13 03:15:59;;;;;;;11.32;7.32;;;;;;;16.06;100.00;100844.00;5052166;28;20044;-82
2023/10/13 03:18:24;;;;;;;11.32;7.20;;;;;;;16.07;100.00;100837.84;5050855;28;20021;-82
2023/10/13 03:20:56;;;;;;;12.25;7.43;;;;;;;16.07;100.00;100828.19;5051330;28;20434;-81
2023/10/13 03:23:24;;;;;;;11.57;7.22;;;;;;;16.07;100.00;100822.94;5052444;28;20017;-81
2023/10/13 03:25:55;;;;;;;10.75;7.65;;;;;;;16.07;100.00;100820.34;5052539;28;20124;-81
2023/10/13 03:28:24;;;;;;;;;;;;;;;16.08;100.00;100816.78;5053065;28;20025;-81
2023/10/13 03:30:52;;;;;;;13.88;6.80;;;;;;;16.10;100.00;100813.25;5050757;28;19959;-82
2023/10/13 03:33:25;;;;;;;12.80;7.05;;;;;;;16.10;100.00;100808.00;5050661;28;20487;-81
2023/10/13 03:35:54;;;;;;;10.93;7.13;;;;;;;16.09;100.00;100804.50;5053548;28;20028;-82
2023/10/13 03:38:20;;;;;;;12.82;7.43;;;;;;;16.09;100.00;100801.88;5051296;28;20107;-82
2023/10/13 03:40:58;;;;;;;11.32;7.25;;;;;;;16.10;100.00;100795.69;5053146;28;20028;-82
2023/10/13 03:43:23;;;;;;;12.45;8.02;;;;;;;16.11;100.00;100783.44;5053517;28;20029;-81
2023/10/13 03:46:07;;;;;;;15.82;7.82;;;;;;;16.11;100.00;100779.03;5052062;28;20112;-81
2023/10/13 03:48:40;;;;;;;12.07;7.15;;;;;;;16.12;100.00;100766.78;5050462;28;20101;-81
2023/10/13 03:51:14;;;;;;;13.43;7.35;;;;;;;16.14;100.00;100757.06;5053363;28;20032;-81
2023/10/13 03:53:53;;;;;;;11.93;7.97;;;;;;;16.14;100.00;100770.16;5051165;28;20024;-81
2023/10/13 03:56:56;;;;;;;13.23;8.43;;;;;;;16.14;100.00;100757.88;5052533;28;20084;-81
2023/10/13 04:04:14;;;;;;;12.57;8.23;;;;;;;16.17;100.00;100757.72;5050815;28;20033;-81
2023/10/13 04:17:27;;;;;;;13.15;8.15;;;;;;;16.22;100.00;100713.75;5056330;28;20462;-81
2023/10/13 04:36:13;;;;;;;13.25;8.82;;;;;;;16.32;100.00;100687.81;5052621;28;20526;-81
2023/10/13 04:38:57;;;;;;;13.48;7.57;;;;;;;16.34;100.00;100693.84;5051816;28;20025;-81
2023/10/13 04:41:31;;;;;;;12.38;7.80;;;;;;;16.37;100.00;100692.84;5050508;28;20371;-81
2023/10/13 04:49:29;;;;;;;11.45;7.15;;;;;;;16.42;100.00;100698.69;5049980;28;20496;-81
2023/10/13 04:51:59;;;;;;;12.35;7.43;;;;;;;16.42;100.00;100684.75;5050501;28;20020;-81
2023/10/13 04:54:54;;;;;;;10.77;6.90;;;;;;;16.44;100.00;100680.25;5050549;28;20057;-81
2023/10/13 04:57:34;;;;;;;11.25;6.63;;;;;;;16.45;100.00;100688.03;5052421;28;20059;-81
2023/10/13 06:29:36;;;;;;;7.38;4.55;;;;;;;16.65;100.00;100588.94;5048950;28;20040;-81
2023/10/13 06:32:10;;;;;;;7.55;4.55;;;;;;;16.67;100.00;100594.97;5049062;28;20024;-80
2023/10/13 06:34:44;;;;;;;7.68;4.35;;;;;;;16.65;100.00;100595.03;5050078;28;20039;-80
2023/10/13 06:37:22;;;;;;;8.82;4.30;;;;;;;16.66;100.00;100591.47;5051102;28;20154;-80
2023/10/13 06:39:52;;;;;;;8.15;4.50;;;;;;;16.67;100.00;100589.72;5070043;28;20100;-81
2023/10/13 06:42:19;;;;;;;10.05;4.82;;;;;;;16.67;100.00;100582.66;5071397;28;20058;-81
2023/10/13 06:44:45;;;;;;;6.95;4.32;;;;;;;16.68;100.00;100583.53;5071115;28;20032;-81
2023/10/13 06:47:11;;;;;;;6.82;4.03;;;;;;;16.68;100.00;100583.53;5052217;28;20039;-81
2023/10/13 06:49:43;;;;;;;7.22;4.32;;;;;;;16.68;100.00;100575.66;5049830;28;20025;-81
2023/10/13 06:52:08;;;;;;;6.45;4.05;;;;;;;16.68;100.00;100575.66;5048886;28;20025;-81
2023/10/13 06:54:34;;;;;;;7.03;4.00;;;;;;;16.68;100.00;100565.13;5049557;28;20029;-81
2023/10/13 06:57:03;;;;;;;5.78;3.75;;;;;;;16.68;100.00;100568.59;5048758;28;20021;-80
2023/10/13 06:59:32;;;;;;;8.23;4.25;;;;;;;16.69;100.00;100564.22;5048572;28;20090;-80
2023/10/13 07:02:03;;;;;;;9.18;4.13;;;;;;;16.70;100.00;100563.28;5047722;28;20032;-80
2023/10/13 07:04:28;;;;;;;6.95;3.88;;;;;;;16.71;100.00;100550.97;5051174;28;20419;-80
2023/10/13 07:06:54;;;;;;;8.75;3.97;;;;;;;16.71;100.00;100557.09;5045823;28;20036;-80
2023/10/13 07:12:06;;;;;;;12.03;4.10;;;;;;;16.75;100.00;100542.00;5052793;28;20033;-80
2023/10/13 07:14:33;;;;;;;;;;;;;;;16.75;100.00;100542.00;5054028;28;20028;-80
2023/10/13 07:17:04;;;;;;;8.40;3.88;;;;;;;16.77;100.00;100533.09;5051811;28;20431;-81
2023/10/13 07:19:29;;;;;;;;;;;;;;;16.76;100.00;100528.75;5054205;28;20060;-80
2023/10/13 07:21:59;;;;;;;10.68;3.92;;;;;;;16.78;100.00;100528.69;5051250;28;19948;-80
2023/10/13 07:24:39;;;;;;;11.50;4.07;;;;;;;16.79;100.00;100514.63;5053663;28;20035;-80
2023/10/13 07:27:05;;;;;;;10.23;3.80;;;;;;;16.81;100.00;100526.72;5052164;28;20067;-80
2023/10/13 07:29:33;;;;;;;8.90;3.92;;;;;;;16.83;100.00;100516.13;5053251;28;20063;-80
2023/10/13 07:32:02;;;;;;;7.97;3.83;;;;;;;16.84;100.00;100505.53;5049993;28;20021;-80
2023/10/13 07:34:32;;;;;;;11.88;4.10;;;;;;;16.87;100.00;100494.00;5051612;28;20028;-80
2023/10/13 07:37:00;;;;;;;10.38;3.90;;;;;;;16.89;100.00;100497.38;5052109;28;20494;-80
2023/10/13 07:39:33;;;;;;;8.65;4.05;;;;;;;16.92;100.00;100502.47;5051116;28;20083;-80
2023/10/13 07:42:06;;;;;;;11.48;4.10;;;;;;;16.94;100.00;100497.13;5049613;28;20034;-80
2023/10/13 07:44:36;;;;;;;7.15;3.97;;;;;;;16.98;100.00;100503.91;5049088;28;20027;-80
2023/10/13 07:47:07;;;;;;;9.75;3.88;;;;;;;17.00;100.00;100512.56;5049309;28;20032;-80
2023/10/13 07:49:39;;;;;;;9.63;4.07;;;;;;;17.05;100.00;100515.78;5049902;28;20075;-80
2023/10/13 07:54:49;;;;;;;;;;;;;;;17.14;100.00;100501.25;5050683;28;20037;-80
2023/10/13 07:57:17;;;;;;;14.30;4.30;;;;;;;17.16;100.00;100509.91;5048582;28;20049;-80
2023/10/13 07:59:52;;;;;;;10.07;4.03;;;;;;;17.22;100.00;100506.91;5051813;28;20038;-80
2023/10/13 08:02:48;;;;;;;9.20;3.80;;;;;;;17.27;100.00;100498.72;5050937;28;20066;-80
2023/10/13 08:05:09;;;;;;;9.57;4.10;;;;;;;17.32;100.00;100487.97;5049491;28;20060;-79
2023/10/13 08:07:39;;;;;;;6.30;4.00;;;;;;;17.35;100.00;100479.88;5043976;28;20473;-79
2023/10/13 08:10:09;;;;;;;10.73;4.20;;;;;;;17.39;100.00;100473.50;5048143;28;20392;-80
2023/10/13 08:12:37;;;;;;;7.70;4.25;;;;;;;17.43;100.00;100482.88;5048900;28;20374;-80
2023/10/13 08:15:21;;;;;;;11.10;4.35;;;;;;;17.45;100.00;100473.97;5058892;28;20431;-80
2023/10/13 08:17:47;;;;;;;7.97;4.00;;;;;;;17.51;100.00;100488.50;5046573;28;20031;-80
2023/10/13 08:20:12;;;;;;;9.35;3.85;;;;;;;17.55;100.00;100494.47;5046699;28;21846;-80
2023/10/13 08:22:38;;;;;;;10.15;4.13;;;;;;;17.61;100.00;100480.91;5051430;28;20029;-80
2023/10/13 08:30:42;;;;;;;8.77;4.07;;;;;;;17.78;100.00;100476.41;5048706;28;20112;-80
2023/10/13 08:33:24;;;;;;;9.25;4.13;;;;;;;17.83;100.00;100467.31;5042328;28;20052;-80
2023/10/13 08:38:50;;;;;;;12.13;4.70;;;;;;;17.95;100.00;100491.97;5047067;28;20062;-80
2023/10/13 08:43:50;;;;;;;9.98;4.32;;;;;;;18.03;100.00;100476.59;5048212;28;20116;-80
2023/10/13 08:46:26;;;;;;;11.18;4.30;;;;;;;18.09;100.00;100462.19;5049222;28;20029;-81
2023/10/13 08:49:04;;;;;;;11.93;4.43;;;;;;;18.15;100.00;100466.22;5050215;28;20491;-81
2023/10/13 08:51:43;;;;;;;11.38;4.82;;;;;;;18.22;100.00;100462.25;5045221;28;20074;-80
2023/10/13 08:54:19;;;;;;;11.20;3.88;;;;;;;18.25;100.00;100469.97;5048686;28;20108;-80
2023/10/13 08:56:56;;;;;;;9.77;4.20;;;;;;;18.31;100.00;100453.75;5050487;28;20464;-80
2023/10/13 08:59:23;;;;;;;11.52;4.38;;;;;;;18.32;100.00;100462.53;5047919;28;20074;-80
2023/10/13 09:01:59;;;;;;;8.88;3.92;;;;;;;18.32;100.00;100447.56;5046655;28;20077;-80
2023/10/13 09:04:34;;;;;;;10.98;4.22;;;;;;;18.37;100.00;100449.06;5048407;28;20033;-80
2023/10/13 09:09:34;;;;;;;10.45;4.13;;;;;;;18.44;100.00;100451.19;5050759;28;20028;-80
2023/10/13 09:12:09;;;;;;;13.57;4.47;;;;;;;18.48;100.00;100438.66;5051254;28;20048;-80
2023/10/13 09:14:37;;;;;;;9.57;4.55;;;;;;;18.50;100.00;100440.25;5050594;28;20033;-80
2023/10/13 09:17:47;;;;;;;13.15;5.00;;;;;;;18.53;100.00;100441.84;5050135;28;20119;-80
2023/10/13 09:19:56;;;;;;;11.43;4.70;;;;;;;18.55;100.00;100432.03;5046241;28;20475;-80
2023/10/13 09:22:35;;;;;;;8.35;4.20;;;;;;;18.57;100.00;100435.41;5052247;28;20028;-80
2023/10/13 09:25:02;;;;;;;10.77;4.47;;;;;;;18.58;100.00;100447.66;5047035;28;20070;-81
2023/10/13 09:27:30;;;;;;;11.73;4.53;;;;;;;18.60;100.00;100447.53;5047369;28;20025;-81
2023/10/13 09:29:56;;;;;;;12.00;4.47;;;;;;;18.59;99.88;100436.16;5053892;28;20073;-81
2023/10/13 09:32:21;;;;;;;7.70;3.90;;;;;;;18.60;99.31;100440.50;5044721;28;20076;-80
2023/10/13 09:34:50;;;;;;;8.52;4.05;;;;;;;18.61;99.18;100431.66;5049839;28;20036;-81
2023/10/13 09:37:20;;;;;;;10.70;4.00;;;;;;;18.63;99.42;100437.63;5045939;28;20072;-81
2023/10/13 09:39:48;;;;;;;11.52;3.90;;;;;;;18.66;98.07;100445.34;5047118;28;20031;-81
2023/10/13 09:42:15;;;;;;;10.07;4.00;;;;;;;18.70;97.49;100435.47;5046332;28;20388;-81
2023/10/13 09:44:41;;;;;;;11.45;4.32;;;;;;;18.73;96.81;100440.50;5049488;28;20527;-81
2023/10/13 09:47:24;;;;;;;8.77;4.20;;;;;;;18.79;97.92;100431.34;5043754;28;20151;-81
2023/10/13 09:49:57;;;;;;;14.05;4.53;;;;;;;18.83;97.34;100427.56;5047918;28;20025;-81
2023/10/13 09:52:26;;;;;;;9.52;4.20;;;;;;;18.85;95.21;100438.00;5048296;28;20480;-82
2023/10/13 09:55:27;;;;;;;10.55;4.43;;;;;;;18.91;97.15;100427.03;5048105;28;20028;-81
2023/10/13 09:58:14;;;;;;;12.40;4.33;;;;;;;18.93;97.98;100431.28;5049404;28;20100;-82
2023/10/13 10:00:57;;;;;;;9.50;4.38;;;;;;;18.95;95.43;100418.00;5050299;28;20519;-82
2023/10/13 10:06:27;;;;;;;9.95;4.80;;;;;;;19.04;93.12;100412.13;5048190;28;20104;-82
2023/10/13 10:08:50;;;;;;;9.98;4.05;;;;;;;19.09;91.97;100410.00;5047007;28;20039;-81
2023/10/13 10:11:45;;;;;;;9.35;4.18;;;;;;;19.15;93.80;100408.72;5051164;28;20009;-82
2023/10/13 10:14:39;;;;;;;10.15;4.40;;;;;;;19.18;93.05;100403.25;5048701;28;20029;-81
2023/10/13 10:17:09;;;;;;;10.98;4.35;;;;;;;19.19;92.88;100410.22;5030208;28;20033;-81
2023/10/13 10:20:06;;;;;;;10.48;4.32;;;;;;;19.20;94.34;100400.53;5045038;28;20082;-81
2023/10/13 10:22:36;;;;;;;12.65;4.30;;;;;;;19.16;91.99;100391.97;5044908;28;20045;-81
2023/10/13 10:25:24;;;;;;;11.50;4.20;;;;;;;19.15;91.41;100394.72;5047750;28;20541;-82
2023/10/13 10:27:56;;;;;;;8.82;4.07;;;;;;;19.11;92.23;100391.44;5053596;28;20025;-82
2023/10/13 10:30:26;;;;;;;11.80;4.38;;;;;;;19.12;91.83;100387.88;5050260;28;20020;-82
2023/10/13 10:32:59;;;;;;;13.00;4.93;;;;;;;19.11;90.87;100381.75;5052236;28;20021;-81
2023/10/13 10:35:29;;;;;;;10.13;4.30;;;;;;;19.13;89.93;100378.16;5049384;28;20052;-81
2023/10/13 10:38:11;;;;;;;10.73;4.90;;;;;;;19.14;89.68;100370.13;5048765;28;20083;-81
2023/10/13 10:40:58;;;;;;;11.95;4.20;;;;;;;19.17;89.71;100364.63;5049800;28;20490;-82
2023/10/13 10:43:41;;;;;;;9.93;4.57;;;;;;;19.20;90.20;100364.44;5048526;28;20079;-82
2023/10/13 10:46:07;;;;;;;12.13;4.50;;;;;;;19.24;89.06;100365.06;5050777;28;20431;-81
2023/10/13 10:48:34;;;;;;;10.13;4.45;;;;;;;19.26;88.30;100361.38;5047172;28;20028;-82
2023/10/13 10:51:06;;;;;;;10.85;4.45;;;;;;;19.32;87.88;100357.47;5048043;28;20021;-81
2023/10/13 10:53:37;;;;;;;12.88;4.53;;;;;;;19.37;86.95;100365.03;5052307;28;20024;-82
2023/10/13 10:56:18;;;;;;;13.15;4.60;;;;;;;19.43;86.71;100369.91;5057282;28;20029;-81
2023/10/13 10:58:46;;;;;;;9.85;4.53;;;;;;;19.51;84.89;100366.72;5049230;28;20040;-81
2023/10/13 11:01:12;;;;;;;11.85;5.03;;;;;;;19.55;84.62;100347.06;5055985;28;20029;-81
2023/10/13 11:03:41;;;;;;;12.18;4.95;;;;;;;19.60;83.17;100355.47;5046717;28;20029;-81
2023/10/13 11:06:16;;;;;;;12.07;4.43;;;;;;;19.69;83.29;100359.25;5050555;28;20039;-81
2023/10/13 11:08:43;;;;;;;17.05;4.45;;;;;;;19.77;80.65;100346.38;5047928;28;20025;-81
2023/10/13 11:11:17;;;;;;;11.80;4.72;;;;;;;19.86;81.28;100344.84;5050068;28;20036;-81
2023/10/13 11:13:54;;;;;;;11.30;4.35;;;;;;;19.95;81.10;100359.22;5047797;28;20027;-81
2023/10/13 11:16:24;;;;;;;13.77;4.57;;;;;;;20.03;80.00;100354.19;5050408;28;20476;-81
2023/10/13 11:19:00;;;;;;;12.13;4.60;;;;;;;20.11;81.89;100337.78;5050181;28;20031;-81
2023/10/13 11:21:30;;;;;;;12.52;4.47;;;;;;;20.16;81.15;100347.03;5050228;28;20033;-81
2023/10/13 11:23:57;;;;;;;12.75;4.80;;;;;;;20.20;81.25;100325.69;5047440;28;20029;-81
2023/10/13 11:26:33;;;;;;;9.93;4.40;;;;;;;20.21;81.25;100328.22;5051381;28;20526;-81
2023/10/13 11:28:58;;;;;;;11.25;4.85;;;;;;;20.22;79.77;100334.34;5051749;28;20029;-80
2023/10/13 11:31:24;;;;;;;11.85;4.68;;;;;;;20.23;78.72;100321.03;5047163;28;20024;-81
2023/10/13 11:33:50;;;;;;;9.43;4.50;;;;;;;20.27;79.18;100313.72;5049029;28;20487;-81
2023/10/13 11:36:22;;;;;;;11.30;4.32;;;;;;;20.31;79.89;100309.91;5051039;28;20021;-81
2023/10/13 11:41:14;;;;;;;10.63;4.45;;;;;;;20.38;78.82;100297.88;5046937;28;20465;-81
2023/10/13 11:48:46;;;;;;;12.88;5.30;;;;;;;20.55;79.57;100287.84;5048090;28;20369;-81
2023/10/13 11:51:25;;;;;;;11.15;4.63;;;;;;;20.57;77.42;100270.91;5049758;28;20024;-81
2023/10/13 11:53:51;;;;;;;11.40;4.57;;;;;;;20.60;77.62;100275.94;5050846;28;20029;-81
2023/10/13 11:56:20;;;;;;;10.80;4.68;;;;;;;20.63;75.49;100269.59;5049377;28;20598;-81
2023/10/13 11:58:46;;;;;;;14.10;5.15;;;;;;;20.66;76.31;100265.88;5045321;28;20039;-81
2023/10/13 12:06:46;;;;;;;10.70;5.20;;;;;;;20.76;74.47;100257.13;5048723;28;20044;-81
2023/10/13 12:11:41;;;;;;;10.88;4.70;;;;;;;20.85;74.53;100241.50;5047249;28;20105;-81
2023/10/13 12:14:21;;;;;;;10.02;4.45;;;;;;;20.90;74.78;100249.91;5045029;28;20248;-81
2023/10/13 12:16:53;;;;;;;9.30;4.50;;;;;;;20.94;73.22;100238.13;5049334;28;21704;-80
2023/10/13 12:19:29;;;;;;;14.27;5.20;;;;;;;21.01;73.66;100243.78;5045778;28;20041;-81
2023/10/13 12:21:55;;;;;;;12.27;4.60;;;;;;;21.06;73.07;100238.97;5048748;28;20488;-81
2023/10/13 12:27:20;;;;;;;12.10;4.72;;;;;;;21.18;72.13;100237.97;5048213;28;20119;-81
2023/10/13 12:29:53;;;;;;;12.77;5.05;;;;;;;21.26;73.08;100250.59;5048782;28;20482;-81
2023/10/13 12:32:30;;;;;;;15.13;4.82;;;;;;;21.30;72.10;100237.94;5048095;28;20032;-81
2023/10/13 12:53:45;;;;;;;11.90;4.30;;;;;;;21.40;70.01;100232.75;5050507;28;20093;-81
2023/10/13 12:56:11;;;;;;;13.05;4.95;;;;;;;21.42;70.17;100222.88;5049168;28;20625;-81
2023/10/13 12:58:36;;;;;;;10.65;4.13;;;;;;;21.44;69.97;100227.06;5050348;28;20029;-81
2023/10/13 13:01:06;;;;;;;13.80;4.57;;;;;;;21.48;68.84;100227.69;5049635;28;20384;-81
2023/10/13 13:03:32;;;;;;;10.32;4.00;;;;;;;21.48;68.58;100227.69;5049862;28;20032;-81
2023/10/13 13:05:58;;;;;;;13.00;4.70;;;;;;;21.49;69.68;100229.38;5043428;28;20484;-81
2023/10/13 13:08:23;;;;;;;12.20;4.28;;;;;;;21.49;68.71;100218.78;5049233;28;20071;-81
2023/10/13 13:10:49;;;;;;;13.45;4.57;;;;;;;21.50;68.45;100225.75;5048272;28;20021;-82
2023/10/13 13:13:16;;;;;;;10.88;4.20;;;;;;;21.50;68.01;100231.06;5047462;28;20058;-81
2023/10/13 13:15:42;;;;;;;9.00;4.15;;;;;;;21.50;68.37;100233.69;5046914;28;20017;-81
2023/10/13 13:18:11;;;;;;;12.15;4.60;;;;;;;21.49;67.98;100224.91;5048235;28;20045;-81
2023/10/13 13:20:39;;;;;;;13.07;4.15;;;;;;;21.50;67.75;100215.16;5044240;28;20035;-81
2023/10/13 13:23:05;;;;;;;12.77;4.10;;;;;;;21.51;67.54;100219.50;5046435;28;20027;-81
2023/10/13 13:25:31;;;;;;;13.77;3.65;;;;;;;21.53;67.54;100214.91;5047803;28;20025;-82
2023/10/13 13:27:57;;;;;;;12.80;3.53;;;;;;;21.52;66.75;100221.19;5050007;28;20151;-82
2023/10/13 13:30:30;;;;;;;12.35;4.10;;;;;;;21.52;66.51;100213.25;5045639;28;20017;-82
2023/10/13 13:32:55;;;;;;;10.02;3.63;;;;;;;21.55;65.94;100215.59;5047464;28;20033;-82
2023/10/13 13:35:20;;;;;;;11.35;3.75;;;;;;;21.55;66.29;100210.31;5045345;28;20045;-83
2023/10/13 13:37:46;;;;;;;14.13;4.15;;;;;;;21.57;66.17;100210.22;5045420;28;20040;-82
2023/10/13 13:40:15;;;;;;;9.00;4.05;;;;;;;21.56;65.70;100213.81;5047104;28;20514;-81
2023/10/13 13:42:42;;;;;;;12.23;4.07;;;;;;;21.54;65.97;100216.56;5046114;28;20029;-82
2023/10/13 13:45:21;;;;;;;10.73;3.67;;;;;;;21.51;66.83;100228.25;5045885;28;20476;-81
2023/10/13 13:47:55;;;;;;;12.68;3.75;;;;;;;21.49;65.75;100202.91;5046575;28;20086;-81
2023/10/13 13:50:29;;;;;;;10.85;3.80;;;;;;;21.45;65.95;100212.06;5048464;28;20032;-83
2023/10/13 13:52:57;;;;;;;14.18;3.50;;;;;;;21.44;65.18;100215.66;5046890;28;20032;-82
2023/10/13 13:55:26;;;;;;;12.40;4.07;;;;;;;21.41;65.42;100211.47;5045113;28;20033;-82
2023/10/13 13:57:51;;;;;;;11.77;3.65;;;;;;;21.42;65.95;100214.94;5044246;28;20061;-82
2023/10/13 14:00:23;;;;;;;8.85;3.95;;;;;;;21.42;66.40;100217.59;5041888;28;20460;-82
2023/10/13 14:02:48;;;;;;;12.40;3.72;;;;;;;21.42;65.90;100220.22;5047085;28;20094;-82
2023/10/13 14:05:15;;;;;;;11.27;3.92;;;;;;;21.41;65.49;100207.97;5044364;28;20434;-82
2023/10/13 14:07:42;;;;;;;12.20;3.85;;;;;;;21.40;65.79;100199.22;5049478;28;20020;-82
2023/10/13 14:10:15;;;;;;;9.77;3.72;;;;;;;21.41;66.03;100213.25;5045992;28;20396;-82
2023/10/13 14:12:41;;;;;;;12.38;3.70;;;;;;;21.40;64.85;100204.50;5045956;28;20022;-82
2023/10/13 14:15:19;;;;;;;10.73;3.60;;;;;;;21.40;66.37;100206.28;5045478;28;20086;-82
2023/10/13 14:17:48;;;;;;;10.98;3.67;;;;;;;21.37;65.72;100208.22;5046345;28;20381;-82
2023/10/13 14:20:20;;;;;;;9.32;3.58;;;;;;;21.36;65.20;100201.25;5046168;28;20028;-82
2023/10/13 14:22:48;;;;;;;10.32;3.65;;;;;;;21.35;65.95;100207.50;5050665;28;20029;-82
2023/10/13 14:25:14;;;;;;;12.95;4.05;;;;;;;21.36;64.80;100203.88;5049226;28;20029;-82
2023/10/13 14:27:41;;;;;;;10.20;3.90;;;;;;;21.36;66.09;100203.88;5052102;28;20033;-82
2023/10/13 14:30:07;;;;;;;13.30;3.65;;;;;;;21.38;65.64;100211.72;5050904;28;20025;-81
2023/10/13 14:32:32;;;;;;;8.82;3.40;;;;;;;21.41;65.72;100200.03;5050977;28;20087;-82
2023/10/13 14:34:58;;;;;;;20.17;3.55;;;;;;;21.41;65.38;100200.03;5050411;28;20032;-82
2023/10/13 14:37:26;;;;;;;8.32;3.30;;;;;;;21.41;65.89;100207.97;5051139;28;20098;-82
2023/10/13 14:39:56;;;;;;;9.13;3.60;;;;;;;21.42;65.33;100201.72;5050644;28;20041;-81
2023/10/13 14:42:22;;;;;;;9.55;3.63;;;;;;;21.43;64.78;100208.69;5049952;28;20021;-82
2023/10/13 14:44:55;;;;;;;9.43;3.13;;;;;;;21.43;64.98;100192.81;5050105;28;20033;-82